Kenai, AK

10:45 AM AKDT on May 28, 2015 (GMT -0800)
Wildwood | | Change Station
CLOSE
Current Station
Personal Weather Station
Location: Kenai, AK
Elevation: 95 ft
Nearby Weather Stations

Elev 95 ft 60.58 °N, 151.31 °W | Updated 14 seconds ago

Clear
Clear
51.9 °F
Feels Like 51.9 °F
N
2.4
Wind Variable Wind from NW
Gusts 4.0 mph

Today
High -- | Low -- °F
--% Chance of Precip.
Yesterday
High -- | Low -- °F
Precip. -- in
4:55 AM 11:10 PM
Waxing Gibbous, 77% visible
Pressure 30.37 in
Visibility 10.0 miles
Clouds Clear
Dew Point 45 °F
Humidity 76%
Rainfall 0.00 in
Snow Depth Not available.
UV 3.2 out of 12
Pollen Not available.
Air Quality Not available.
Flu Activity Local Activity
METAR PAEN 281753Z 23012KT 10SM CLR 09/06 A3036 RMK AO2 SLP283 T00940056 10094 20044 51004

More Conditions Fewer Conditions

Pressure 30.37 in
Visibility 10.0 miles
Clouds Clear
Dew Point 45 °F
Humidity 76%
Rainfall 0.00 in
Snow Depth Not available.
UV 3.2 out of 12
Pollen Not available.
Air Quality Not available.
Flu Activity Local Activity
METAR PAEN 281753Z 23012KT 10SM CLR 09/06 A3036 RMK AO2 SLP283 T00940056 10094 20044 51004

More Conditions Fewer Conditions

10-Day Weather Forecast

Almanac

Astronomy

May. 28, 2015 Rise Set
Actual Time
Civil Twilight
Nautical Twilight
Astronomical Twilight
Moon
Length of Visible Light
Length of Day
Tomorrow will be .
, % of the Moon is Illuminated

Today's Extremes

State Highs State Lows

Community

WunderPhotos

Upload Photos

1,825,015 photos uploaded!

WunderBlogs® & News

Nearby

Air Quality

  Air Quality AQ Index Pollutant
Not available.

Snow Depth

Station Depth Elevation

Earthquake Activity

City Distance Mag. Time & Date
Minimum magnitude displayed is 2.5.

Coastal Water Temperatures

Place Temperature

Stations

Nearby Weather Stations

Station Location Temp. Windchill Dew Point Humidity Wind Precip. Elev Updated Type